createdAt,value
2023-04-05T00:02:34.879Z,6.65
2023-04-05T00:07:36.612Z,9.38
2023-04-05T00:12:38.253Z,8.73
2023-04-05T00:17:40.061Z,6.68
2023-04-05T00:22:42.516Z,10.68
2023-04-05T00:27:44.610Z,9.20
2023-04-05T00:32:50.351Z,8.55
2023-04-05T00:37:52.210Z,4.68
2023-04-05T00:42:53.980Z,6.55
2023-04-05T00:47:56.001Z,5.57
2023-04-05T00:52:58.619Z,6.07
2023-04-05T00:58:00.736Z,5.10
2023-04-05T01:03:03.410Z,7.63
2023-04-05T01:08:08.229Z,5.00
2023-04-05T01:13:09.801Z,8.15
2023-04-05T01:18:11.522Z,7.70
2023-04-05T01:23:32.754Z,7.45
2023-04-05T01:28:40.262Z,6.78
2023-04-05T01:33:50.424Z,6.70
2023-04-05T01:38:54.720Z,8.35
2023-04-05T01:43:56.354Z,8.52
2023-04-05T01:48:58.013Z,6.10
2023-04-05T01:53:59.634Z,6.57
2023-04-05T01:59:01.412Z,8.38
2023-04-05T02:04:03.022Z,6.10
2023-04-05T02:09:05.723Z,8.20
2023-04-05T02:14:07.278Z,9.13
2023-04-05T02:19:08.805Z,6.82
2023-04-05T02:24:10.330Z,7.47
2023-04-05T02:29:13.284Z,7.25
2023-04-05T02:34:14.822Z,7.13
2023-04-05T02:39:16.371Z,7.93
2023-04-05T02:44:18.080Z,7.63
2023-04-05T02:49:19.593Z,7.43
2023-04-05T02:54:21.650Z,9.60
2023-04-05T02:59:23.825Z,6.97
2023-04-05T03:04:25.425Z,10.93
2023-04-05T03:09:28.873Z,7.22
2023-04-05T03:14:36.550Z,7.35
2023-04-05T03:19:38.667Z,7.45
2023-04-05T03:24:54.660Z,6.97
2023-04-05T03:29:57.078Z,8.15
2023-04-05T03:34:58.990Z,6.78
2023-04-05T03:40:00.567Z,6.72
2023-04-05T03:45:02.229Z,7.32
2023-04-05T03:50:04.285Z,9.75
2023-04-05T03:55:07.735Z,7.47
2023-04-05T04:00:11.523Z,10.63
2023-04-05T04:05:17.439Z,11.03
2023-04-05T04:10:23.962Z,10.63
2023-04-05T04:15:29.348Z,9.80
2023-04-05T04:20:44.818Z,10.50
2023-04-05T04:31:32.127Z,9.68
2023-04-05T04:36:59.650Z,9.98
2023-04-05T04:42:30.637Z,9.18
2023-04-05T04:48:01.448Z,9.15
2023-04-05T04:53:24.609Z,12.40
2023-04-05T04:58:26.129Z,9.02
2023-04-05T05:03:36.798Z,10.90
2023-04-05T05:08:38.328Z,10.15
2023-04-05T05:13:39.838Z,10.65
2023-04-05T05:18:42.631Z,9.48
2023-04-05T05:23:44.234Z,10.98
2023-04-05T05:28:45.751Z,8.48
2023-04-05T05:33:47.369Z,9.80
2023-04-05T05:38:48.879Z,11.52
2023-04-05T05:43:50.416Z,11.80
2023-04-05T05:48:52.241Z,11.63
2023-04-05T05:53:53.801Z,10.98
2023-04-05T05:58:55.404Z,7.90
2023-04-05T06:03:57.003Z,14.73
2023-04-05T06:08:58.528Z,10.27
2023-04-05T06:14:00.055Z,9.27
2023-04-05T06:19:01.582Z,10.07
2023-04-05T06:24:03.192Z,11.15
2023-04-05T06:29:08.334Z,8.68
2023-04-05T06:34:09.828Z,7.25
2023-04-05T06:39:11.347Z,6.45
2023-04-05T06:44:12.957Z,5.97
2023-04-05T06:49:14.605Z,5.65
2023-04-05T06:54:16.191Z,6.63
2023-04-05T06:59:17.840Z,8.13
2023-04-05T07:04:19.426Z,8.02
2023-04-05T07:09:21.048Z,9.40
2023-04-05T07:14:23.096Z,9.05
2023-04-05T07:19:24.830Z,9.45
2023-04-05T07:24:26.328Z,8.77
2023-04-05T07:29:27.881Z,7.10
2023-04-05T07:34:29.405Z,8.38
2023-04-05T07:39:31.151Z,7.60
2023-04-05T07:44:33.754Z,8.07
2023-04-05T07:49:35.333Z,6.63
2023-04-05T07:54:36.888Z,5.70
2023-04-05T07:59:38.630Z,10.63
2023-04-05T08:04:40.299Z,7.13
2023-04-05T08:09:41.873Z,5.88
2023-04-05T08:14:43.425Z,5.45
2023-04-05T08:19:44.972Z,6.43
2023-04-05T08:24:46.543Z,7.15
2023-04-05T08:29:48.131Z,7.47
2023-04-05T08:34:49.628Z,7.38
2023-04-05T08:39:51.303Z,6.97
2023-04-05T08:44:53.362Z,6.50
2023-04-05T08:49:55.336Z,5.78
2023-04-05T08:54:57.034Z,6.40
2023-04-05T09:00:02.478Z,7.93
2023-04-05T09:05:09.115Z,8.05
2023-04-05T09:10:13.778Z,9.77
2023-04-05T09:15:16.739Z,7.40
2023-04-05T09:20:18.469Z,5.68
2023-04-05T09:25:32.178Z,8.57
2023-04-05T09:30:34.384Z,8.20
2023-04-05T09:35:37.212Z,6.05
2023-04-05T09:40:45.625Z,6.25
2023-04-05T09:45:50.186Z,6.05
2023-04-05T09:51:12.726Z,6.35
2023-04-05T09:56:14.794Z,6.70
2023-04-05T10:01:17.419Z,4.85
2023-04-05T10:06:19.197Z,6.95
2023-04-05T10:11:20.765Z,5.88
2023-04-05T10:16:26.412Z,5.82
2023-04-05T10:21:35.409Z,4.95
2023-04-05T10:26:48.743Z,6.03
2023-04-05T10:31:55.116Z,8.07
2023-04-05T10:36:56.756Z,4.97
2023-04-05T10:42:09.930Z,5.32
2023-04-05T10:47:16.423Z,5.60
2023-04-05T10:52:18.293Z,7.32
2023-04-05T10:57:21.313Z,5.28
2023-04-05T11:02:23.226Z,5.88
2023-04-05T11:07:24.973Z,7.97
2023-04-05T11:12:47.993Z,5.63
2023-04-05T11:18:07.742Z,6.07
2023-04-05T11:23:15.037Z,5.47
2023-04-05T11:28:37.201Z,6.53
2023-04-05T11:33:49.795Z,5.28
2023-04-05T11:39:29.575Z,4.85
2023-04-05T11:44:39.987Z,8.85
2023-04-05T11:49:41.538Z,6.38
2023-04-05T11:54:44.046Z,5.03
2023-04-05T11:59:45.673Z,6.32
2023-04-05T12:04:54.630Z,6.75
2023-04-05T12:10:17.178Z,6.55
2023-04-05T12:15:18.816Z,7.07
2023-04-05T12:20:25.029Z,7.85
2023-04-05T12:25:26.840Z,4.65
2023-04-05T12:30:28.402Z,8.25
2023-04-05T12:35:30.188Z,8.90
2023-04-05T12:40:35.563Z,5.00
2023-04-05T12:45:37.940Z,6.57
2023-04-05T12:50:47.433Z,6.32
2023-04-05T12:55:50.110Z,5.78
2023-04-05T13:00:51.707Z,6.47
2023-04-05T13:05:53.461Z,6.50
2023-04-05T13:10:57.750Z,6.22
2023-04-05T13:15:59.920Z,5.80
2023-04-05T13:21:01.681Z,5.03
2023-04-05T13:26:04.437Z,4.90
2023-04-05T13:31:06.014Z,6.03
2023-04-05T13:36:07.935Z,7.60
2023-04-05T13:41:09.543Z,4.60
2023-04-05T13:46:11.203Z,5.15
2023-04-05T13:51:12.879Z,4.35
2023-04-05T13:56:14.422Z,5.85
2023-04-05T14:01:16.004Z,5.10
2023-04-05T14:06:17.653Z,7.22
2023-04-05T14:11:19.184Z,6.78
2023-04-05T14:16:20.803Z,8.88
2023-04-05T14:21:23.864Z,5.80
2023-04-05T14:26:26.915Z,5.40
2023-04-05T14:31:28.591Z,4.10
2023-04-05T14:36:30.201Z,4.90
2023-04-05T14:41:31.872Z,6.43
2023-04-05T14:46:33.547Z,7.40
2023-04-05T14:51:35.227Z,6.03
2023-04-05T14:56:36.917Z,4.90
2023-04-05T15:01:38.663Z,6.38
2023-04-05T15:06:40.304Z,5.13
2023-04-05T15:11:43.062Z,5.65
2023-04-05T15:16:44.679Z,5.03
2023-04-05T15:21:46.423Z,4.70
2023-04-05T15:26:48.037Z,7.28
2023-04-05T15:31:49.673Z,5.25
2023-04-05T15:36:51.325Z,5.32
2023-04-05T15:41:53.020Z,6.75
2023-04-05T15:46:54.678Z,6.18
2023-04-05T15:51:56.276Z,7.47
2023-04-05T15:56:57.877Z,5.05
2023-04-05T16:01:59.659Z,7.90
2023-04-05T16:07:01.284Z,4.82
2023-04-05T16:12:03.093Z,4.95
2023-04-05T16:17:04.743Z,8.23
2023-04-05T16:22:06.456Z,7.28
2023-04-05T16:27:08.320Z,6.72
2023-04-05T16:32:10.010Z,6.13
2023-04-05T16:37:11.578Z,7.10
2023-04-05T16:42:13.129Z,6.30
2023-04-05T16:47:14.713Z,6.55
2023-04-05T16:52:16.384Z,6.68
2023-04-05T16:57:18.123Z,8.70
2023-04-05T17:02:19.822Z,6.55
2023-04-05T17:07:21.428Z,8.65
2023-04-05T17:12:23.152Z,10.02
2023-04-05T17:17:24.847Z,13.25
2023-04-05T17:22:26.749Z,11.35
2023-04-05T17:27:28.442Z,7.75
2023-04-05T17:32:30.044Z,19.88
2023-04-05T17:37:31.752Z,11.77
2023-04-05T17:42:33.302Z,10.25
2023-04-05T17:47:34.898Z,9.73
2023-04-05T17:52:36.567Z,21.20
2023-04-05T17:57:38.213Z,10.43
2023-04-05T18:02:40.048Z,8.40
2023-04-05T18:07:41.714Z,11.23
2023-04-05T18:12:43.270Z,8.73
2023-04-05T18:17:45.389Z,10.20
2023-04-05T18:22:47.162Z,10.10
2023-04-05T18:27:48.768Z,9.68
2023-04-05T18:32:50.704Z,13.43
2023-04-05T18:37:52.346Z,9.55
2023-04-05T18:42:53.944Z,9.68
2023-04-05T18:47:55.600Z,11.50
2023-04-05T18:52:57.176Z,15.20
2023-04-05T18:57:58.724Z,9.60
2023-04-05T19:03:00.418Z,17.00
2023-04-05T19:08:02.024Z,29.27
2023-04-05T19:13:03.649Z,14.13
2023-04-05T19:18:05.387Z,12.30
2023-04-05T19:23:06.996Z,16.75
2023-04-05T19:28:08.630Z,13.52
2023-04-05T19:33:10.305Z,28.60
2023-04-05T19:38:11.958Z,11.63
2023-04-05T19:43:14.686Z,9.23
2023-04-05T19:48:38.650Z,11.65
2023-04-05T19:53:41.548Z,10.02
2023-04-05T19:58:43.915Z,9.98
2023-04-05T20:03:45.634Z,11.85
2023-04-05T20:08:47.819Z,13.93
2023-04-05T20:13:56.518Z,12.75
2023-04-05T20:19:06.315Z,12.27
2023-04-05T20:24:10.086Z,14.70
2023-04-05T20:29:16.910Z,14.48
2023-04-05T20:34:26.579Z,13.35
2023-04-05T20:39:29.667Z,15.30
2023-04-05T20:44:31.260Z,18.92
2023-04-05T20:49:32.803Z,15.60
2023-04-05T20:54:34.355Z,17.63
2023-04-05T20:59:35.964Z,14.48
2023-04-05T21:04:37.565Z,14.68
2023-04-05T21:09:39.126Z,14.45
2023-04-05T21:14:40.712Z,15.27
2023-04-05T21:19:42.269Z,15.77
2023-04-05T21:24:43.823Z,16.85
2023-04-05T21:29:45.410Z,20.35
2023-04-05T21:34:46.954Z,14.18
2023-04-05T21:39:48.479Z,14.30
2023-04-05T21:44:50.005Z,13.23
2023-04-05T21:49:51.542Z,13.77
2023-04-05T21:54:53.100Z,16.20
2023-04-05T21:59:54.669Z,17.30
2023-04-05T22:04:56.217Z,18.75
2023-04-05T22:09:57.769Z,16.30
2023-04-05T22:14:59.343Z,18.60
2023-04-05T22:20:00.865Z,19.17
2023-04-05T22:25:02.448Z,21.70
2023-04-05T22:30:04.750Z,17.10
2023-04-05T22:35:06.921Z,16.27
2023-04-05T22:40:08.958Z,14.73
2023-04-05T22:45:10.928Z,18.42
2023-04-05T22:50:12.507Z,15.52
2023-04-05T22:55:14.070Z,15.27
2023-04-05T23:00:16.454Z,16.60
2023-04-05T23:05:18.038Z,13.40
2023-04-05T23:10:19.992Z,15.05
2023-04-05T23:15:21.726Z,15.70
2023-04-05T23:20:23.356Z,16.50
2023-04-05T23:25:24.925Z,16.77
2023-04-05T23:30:26.513Z,17.33
2023-04-05T23:35:28.172Z,15.20
2023-04-05T23:40:29.765Z,13.10
2023-04-05T23:45:31.354Z,12.75
2023-04-05T23:50:32.890Z,15.05
2023-04-05T23:55:34.417Z,12.15
